sensor_id;sensor_type;location;lat;lon;timestamp;pressure;altitude;pressure_sealevel;temperature;humidity
37690;BME280;23527;48.150;11.610;2022-07-29T00:00:22;95682.03;;;28.23;34.41
37690;BME280;23527;48.150;11.610;2022-07-29T00:03:23;95686.34;;;28.19;34.91
37690;BME280;23527;48.150;11.610;2022-07-29T00:06:23;95687.44;;;28.18;35.01
37690;BME280;23527;48.150;11.610;2022-07-29T00:09:23;95676.75;;;28.08;34.98
37690;BME280;23527;48.150;11.610;2022-07-29T00:12:24;95676.97;;;28.12;35.44
37690;BME280;23527;48.150;11.610;2022-07-29T00:15:24;95668.13;;;28.16;35.75
37690;BME280;23527;48.150;11.610;2022-07-29T00:18:24;95675.63;;;28.19;35.20
37690;BME280;23527;48.150;11.610;2022-07-29T00:21:25;95678.84;;;28.21;35.62
37690;BME280;23527;48.150;11.610;2022-07-29T00:24:25;95672.69;;;28.16;35.73
37690;BME280;23527;48.150;11.610;2022-07-29T00:27:25;95681.53;;;28.11;35.90
37690;BME280;23527;48.150;11.610;2022-07-29T00:30:25;95677.59;;;28.03;36.29
37690;BME280;23527;48.150;11.610;2022-07-29T00:33:25;95681.97;;;27.89;36.66
37690;BME280;23527;48.150;11.610;2022-07-29T00:36:26;95694.53;;;27.94;36.99
37690;BME280;23527;48.150;11.610;2022-07-29T00:39:26;95679.00;;;27.96;37.16
37690;BME280;23527;48.150;11.610;2022-07-29T00:42:26;95679.22;;;27.99;36.63
37690;BME280;23527;48.150;11.610;2022-07-29T00:45:27;95674.97;;;27.93;35.80
37690;BME280;23527;48.150;11.610;2022-07-29T00:48:27;95669.84;;;27.97;36.13
37690;BME280;23527;48.150;11.610;2022-07-29T00:51:27;95646.53;;;27.97;35.65
37690;BME280;23527;48.150;11.610;2022-07-29T00:54:28;95649.47;;;28.01;35.11
37690;BME280;23527;48.150;11.610;2022-07-29T00:57:29;95645.69;;;28.07;35.57
37690;BME280;23527;48.150;11.610;2022-07-29T01:00:29;95633.03;;;28.13;35.54
37690;BME280;23527;48.150;11.610;2022-07-29T01:03:30;95635.13;;;28.26;35.23
37690;BME280;23527;48.150;11.610;2022-07-29T01:06:30;95631.59;;;28.30;34.58
37690;BME280;23527;48.150;11.610;2022-07-29T01:09:33;95630.81;;;28.30;34.56
37690;BME280;23527;48.150;11.610;2022-07-29T01:12:34;95629.72;;;28.31;34.08
37690;BME280;23527;48.150;11.610;2022-07-29T01:15:46;95632.66;;;28.34;34.49
37690;BME280;23527;48.150;11.610;2022-07-29T01:18:48;95635.25;;;28.40;34.00
37690;BME280;23527;48.150;11.610;2022-07-29T01:21:57;95630.72;;;28.40;34.25
37690;BME280;23527;48.150;11.610;2022-07-29T01:28:38;95623.28;;;28.32;33.36
37690;BME280;23527;48.150;11.610;2022-07-29T01:34:54;95623.53;;;28.35;33.52
37690;BME280;23527;48.150;11.610;2022-07-29T01:38:08;95625.97;;;28.32;33.20
37690;BME280;23527;48.150;11.610;2022-07-29T01:41:12;95633.44;;;28.35;33.44
37690;BME280;23527;48.150;11.610;2022-07-29T01:44:16;95633.13;;;28.36;33.55
37690;BME280;23527;48.150;11.610;2022-07-29T01:47:19;95631.25;;;28.37;34.23
37690;BME280;23527;48.150;11.610;2022-07-29T01:50:20;95628.59;;;28.37;33.94
37690;BME280;23527;48.150;11.610;2022-07-29T01:53:25;95626.22;;;28.35;33.67
37690;BME280;23527;48.150;11.610;2022-07-29T01:56:26;95625.41;;;28.35;33.58
37690;BME280;23527;48.150;11.610;2022-07-29T01:59:30;95617.38;;;28.35;34.37
37690;BME280;23527;48.150;11.610;2022-07-29T02:02:32;95611.84;;;28.21;34.79
37690;BME280;23527;48.150;11.610;2022-07-29T02:05:33;95618.03;;;28.17;35.09
37690;BME280;23527;48.150;11.610;2022-07-29T02:08:34;95615.63;;;28.15;34.20
37690;BME280;23527;48.150;11.610;2022-07-29T02:11:35;95607.31;;;28.17;34.87
37690;BME280;23527;48.150;11.610;2022-07-29T02:14:42;95610.28;;;28.10;33.81
37690;BME280;23527;48.150;11.610;2022-07-29T02:17:51;95606.53;;;28.11;35.05
37690;BME280;23527;48.150;11.610;2022-07-29T02:20:54;95608.94;;;28.13;35.27
37690;BME280;23527;48.150;11.610;2022-07-29T02:23:56;95603.34;;;28.09;35.69
37690;BME280;23527;48.150;11.610;2022-07-29T02:26:57;95589.72;;;28.06;35.38
37690;BME280;23527;48.150;11.610;2022-07-29T02:29:59;95596.94;;;28.05;35.71
37690;BME280;23527;48.150;11.610;2022-07-29T02:33:00;95596.41;;;28.08;36.36
37690;BME280;23527;48.150;11.610;2022-07-29T02:36:01;95582.47;;;28.06;36.07
37690;BME280;23527;48.150;11.610;2022-07-29T02:39:02;95583.56;;;28.05;36.27
37690;BME280;23527;48.150;11.610;2022-07-29T02:42:03;95579.28;;;28.04;35.52
37690;BME280;23527;48.150;11.610;2022-07-29T02:45:05;95578.50;;;27.98;36.19
37690;BME280;23527;48.150;11.610;2022-07-29T02:48:06;95577.97;;;27.96;35.97
37690;BME280;23527;48.150;11.610;2022-07-29T02:51:12;95583.94;;;27.93;35.78
37690;BME280;23527;48.150;11.610;2022-07-29T02:57:41;95579.66;;;27.87;36.63
37690;BME280;23527;48.150;11.610;2022-07-29T03:00:42;95582.63;;;27.86;36.31
37690;BME280;23527;48.150;11.610;2022-07-29T03:03:45;95574.66;;;27.81;36.69
37690;BME280;23527;48.150;11.610;2022-07-29T03:06:46;95578.97;;;27.72;36.35
37690;BME280;23527;48.150;11.610;2022-07-29T03:09:46;95575.28;;;27.67;36.96
37690;BME280;23527;48.150;11.610;2022-07-29T03:12:47;95583.06;;;27.64;36.82
37690;BME280;23527;48.150;11.610;2022-07-29T03:15:47;95577.72;;;27.59;36.93
37690;BME280;23527;48.150;11.610;2022-07-29T03:18:49;95580.97;;;27.56;37.30
37690;BME280;23527;48.150;11.610;2022-07-29T03:21:49;95583.38;;;27.52;37.68
37690;BME280;23527;48.150;11.610;2022-07-29T03:24:50;95584.19;;;27.48;37.45
37690;BME280;23527;48.150;11.610;2022-07-29T03:27:50;95581.03;;;27.41;37.50
37690;BME280;23527;48.150;11.610;2022-07-29T03:30:50;95573.28;;;27.34;37.46
37690;BME280;23527;48.150;11.610;2022-07-29T03:33:50;95577.09;;;27.28;37.79
37690;BME280;23527;48.150;11.610;2022-07-29T03:36:50;95571.22;;;27.21;37.99
37690;BME280;23527;48.150;11.610;2022-07-29T03:39:51;95577.13;;;27.18;38.02
37690;BME280;23527;48.150;11.610;2022-07-29T03:42:52;95578.75;;;27.14;38.29
37690;BME280;23527;48.150;11.610;2022-07-29T03:45:53;95579.84;;;27.08;38.20
37690;BME280;23527;48.150;11.610;2022-07-29T03:48:55;95578.78;;;27.04;37.82
37690;BME280;23527;48.150;11.610;2022-07-29T03:51:58;95584.97;;;26.99;38.16
37690;BME280;23527;48.150;11.610;2022-07-29T03:54:59;95586.59;;;26.95;38.45
37690;BME280;23527;48.150;11.610;2022-07-29T03:57:59;95585.50;;;26.91;38.44
37690;BME280;23527;48.150;11.610;2022-07-29T04:01:00;95597.25;;;26.90;38.45
37690;BME280;23527;48.150;11.610;2022-07-29T04:04:00;95593.00;;;26.84;38.51
37690;BME280;23527;48.150;11.610;2022-07-29T04:07:01;95592.75;;;26.80;38.49
37690;BME280;23527;48.150;11.610;2022-07-29T04:10:02;95594.94;;;26.73;39.06
37690;BME280;23527;48.150;11.610;2022-07-29T04:13:02;95598.66;;;26.72;38.85
37690;BME280;23527;48.150;11.610;2022-07-29T04:16:02;95589.31;;;26.75;38.98
37690;BME280;23527;48.150;11.610;2022-07-29T04:19:02;95595.47;;;26.75;39.03
37690;BME280;23527;48.150;11.610;2022-07-29T04:22:03;95592.78;;;26.70;38.99
37690;BME280;23527;48.150;11.610;2022-07-29T04:25:03;95593.84;;;26.69;39.18
37690;BME280;23527;48.150;11.610;2022-07-29T04:28:04;95593.06;;;26.69;39.23
37690;BME280;23527;48.150;11.610;2022-07-29T04:31:04;95601.59;;;26.66;39.39
37690;BME280;23527;48.150;11.610;2022-07-29T04:34:04;95608.28;;;26.68;39.13
37690;BME280;23527;48.150;11.610;2022-07-29T04:37:04;95602.16;;;26.68;39.56
37690;BME280;23527;48.150;11.610;2022-07-29T04:40:05;95617.38;;;26.72;39.50
37690;BME280;23527;48.150;11.610;2022-07-29T04:43:05;95615.25;;;26.74;39.60
37690;BME280;23527;48.150;11.610;2022-07-29T04:46:06;95622.16;;;26.80;39.65
37690;BME280;23527;48.150;11.610;2022-07-29T04:49:06;95620.00;;;26.87;40.11
37690;BME280;23527;48.150;11.610;2022-07-29T04:52:06;95616.28;;;26.93;39.91
37690;BME280;23527;48.150;11.610;2022-07-29T04:55:07;95618.13;;;27.03;39.77
37690;BME280;23527;48.150;11.610;2022-07-29T04:58:07;95615.69;;;27.12;39.67
37690;BME280;23527;48.150;11.610;2022-07-29T05:01:07;95621.50;;;27.24;39.07
37690;BME280;23527;48.150;11.610;2022-07-29T05:04:07;95627.88;;;27.38;38.73
37690;BME280;23527;48.150;11.610;2022-07-29T05:07:08;95620.59;;;27.44;38.80
37690;BME280;23527;48.150;11.610;2022-07-29T05:10:08;95634.78;;;27.49;38.86
37690;BME280;23527;48.150;11.610;2022-07-29T05:13:08;95633.94;;;27.59;38.56
37690;BME280;23527;48.150;11.610;2022-07-29T05:16:09;95637.13;;;27.66;39.12
37690;BME280;23527;48.150;11.610;2022-07-29T05:19:09;95631.78;;;27.66;36.27
37690;BME280;23527;48.150;11.610;2022-07-29T05:22:09;95637.84;;;27.77;37.11
37690;BME280;23527;48.150;11.610;2022-07-29T05:25:09;95627.63;;;27.84;37.85
37690;BME280;23527;48.150;11.610;2022-07-29T05:28:10;95618.25;;;27.86;37.97
37690;BME280;23527;48.150;11.610;2022-07-29T05:31:11;95640.19;;;27.88;38.39
37690;BME280;23527;48.150;11.610;2022-07-29T05:34:11;95639.09;;;27.89;37.85
37690;BME280;23527;48.150;11.610;2022-07-29T05:37:11;95644.72;;;27.93;37.81
37690;BME280;23527;48.150;11.610;2022-07-29T05:40:13;95642.78;;;27.98;37.71
37690;BME280;23527;48.150;11.610;2022-07-29T05:43:13;95641.41;;;28.06;38.39
37690;BME280;23527;48.150;11.610;2022-07-29T05:46:13;95648.31;;;28.12;37.58
37690;BME280;23527;48.150;11.610;2022-07-29T05:49:14;95648.28;;;28.17;37.50
37690;BME280;23527;48.150;11.610;2022-07-29T05:52:14;95654.72;;;28.21;37.42
37690;BME280;23527;48.150;11.610;2022-07-29T05:55:14;95650.38;;;28.25;37.49
37690;BME280;23527;48.150;11.610;2022-07-29T05:58:15;95646.06;;;28.29;38.19
37690;BME280;23527;48.150;11.610;2022-07-29T06:01:15;95648.72;;;28.34;37.37
37690;BME280;23527;48.150;11.610;2022-07-29T06:04:16;95655.59;;;28.46;36.93
37690;BME280;23527;48.150;11.610;2022-07-29T06:07:16;95653.50;;;28.37;35.30
37690;BME280;23527;48.150;11.610;2022-07-29T06:10:16;95654.56;;;28.36;36.82
37690;BME280;23527;48.150;11.610;2022-07-29T06:13:16;95660.41;;;28.49;35.96
37690;BME280;23527;48.150;11.610;2022-07-29T06:16:16;95655.75;;;28.59;36.40
37690;BME280;23527;48.150;11.610;2022-07-29T06:19:17;95651.88;;;28.70;36.33
37690;BME280;23527;48.150;11.610;2022-07-29T06:22:17;95647.88;;;28.68;35.42
37690;BME280;23527;48.150;11.610;2022-07-29T06:25:17;95650.69;;;28.87;34.53
37690;BME280;23527;48.150;11.610;2022-07-29T06:28:18;95653.53;;;28.95;34.73
37690;BME280;23527;48.150;11.610;2022-07-29T06:31:18;95656.16;;;29.00;33.54
37690;BME280;23527;48.150;11.610;2022-07-29T06:34:18;95659.81;;;29.10;33.94
37690;BME280;23527;48.150;11.610;2022-07-29T06:37:19;95656.69;;;29.26;33.15
37690;BME280;23527;48.150;11.610;2022-07-29T06:40:19;95652.53;;;29.39;33.17
37690;BME280;23527;48.150;11.610;2022-07-29T06:43:39;95655.59;;;29.51;32.98
37690;BME280;23527;48.150;11.610;2022-07-29T06:46:41;95654.09;;;29.64;32.30
37690;BME280;23527;48.150;11.610;2022-07-29T06:49:41;95657.44;;;29.74;31.86
37690;BME280;23527;48.150;11.610;2022-07-29T06:52:41;95653.44;;;29.91;32.48
37690;BME280;23527;48.150;11.610;2022-07-29T06:55:41;95662.09;;;30.06;31.11
37690;BME280;23527;48.150;11.610;2022-07-29T06:58:42;95660.13;;;30.12;31.32
37690;BME280;23527;48.150;11.610;2022-07-29T07:01:42;95658.97;;;30.18;32.15
37690;BME280;23527;48.150;11.610;2022-07-29T07:04:43;95665.28;;;30.27;31.64
37690;BME280;23527;48.150;11.610;2022-07-29T07:07:43;95666.19;;;30.36;31.73
37690;BME280;23527;48.150;11.610;2022-07-29T07:10:43;95675.09;;;30.51;31.24
37690;BME280;23527;48.150;11.610;2022-07-29T07:13:44;95673.97;;;30.57;30.86
37690;BME280;23527;48.150;11.610;2022-07-29T07:16:44;95673.50;;;30.68;29.86
37690;BME280;23527;48.150;11.610;2022-07-29T07:19:44;95663.84;;;30.67;31.08
37690;BME280;23527;48.150;11.610;2022-07-29T07:22:45;95663.78;;;30.86;30.24
37690;BME280;23527;48.150;11.610;2022-07-29T07:25:45;95656.09;;;30.93;29.86
37690;BME280;23527;48.150;11.610;2022-07-29T07:28:45;95653.25;;;31.17;30.64
37690;BME280;23527;48.150;11.610;2022-07-29T07:31:45;95656.28;;;31.29;29.47
37690;BME280;23527;48.150;11.610;2022-07-29T07:34:46;95663.72;;;31.46;30.10
37690;BME280;23527;48.150;11.610;2022-07-29T07:37:46;95654.94;;;31.54;29.33
37690;BME280;23527;48.150;11.610;2022-07-29T07:40:46;95657.44;;;31.64;29.54
37690;BME280;23527;48.150;11.610;2022-07-29T07:43:46;95656.13;;;31.75;29.27
37690;BME280;23527;48.150;11.610;2022-07-29T07:46:46;95663.81;;;31.82;27.32
37690;BME280;23527;48.150;11.610;2022-07-29T07:49:47;95667.63;;;32.03;26.37
37690;BME280;23527;48.150;11.610;2022-07-29T07:52:48;95657.34;;;32.05;26.73
37690;BME280;23527;48.150;11.610;2022-07-29T07:55:48;95655.44;;;32.06;26.65
37690;BME280;23527;48.150;11.610;2022-07-29T07:58:48;95649.03;;;32.15;27.20
37690;BME280;23527;48.150;11.610;2022-07-29T08:01:49;95655.97;;;32.30;27.34
37690;BME280;23527;48.150;11.610;2022-07-29T08:04:49;95652.69;;;32.33;27.03
37690;BME280;23527;48.150;11.610;2022-07-29T08:07:49;95648.31;;;32.46;27.09
37690;BME280;23527;48.150;11.610;2022-07-29T08:10:50;95651.75;;;32.60;26.90
37690;BME280;23527;48.150;11.610;2022-07-29T08:13:53;95652.00;;;32.72;25.93
37690;BME280;23527;48.150;11.610;2022-07-29T08:16:53;95656.69;;;32.67;25.54
37690;BME280;23527;48.150;11.610;2022-07-29T08:19:53;95660.78;;;32.64;27.05
37690;BME280;23527;48.150;11.610;2022-07-29T08:22:54;95665.22;;;32.60;26.43
37690;BME280;23527;48.150;11.610;2022-07-29T08:25:54;95662.09;;;32.67;26.41
37690;BME280;23527;48.150;11.610;2022-07-29T08:28:54;95661.47;;;32.70;26.47
37690;BME280;23527;48.150;11.610;2022-07-29T08:31:55;95666.44;;;32.76;26.50
37690;BME280;23527;48.150;11.610;2022-07-29T08:34:55;95656.81;;;32.84;26.71
37690;BME280;23527;48.150;11.610;2022-07-29T08:37:56;95656.41;;;32.99;26.91
37690;BME280;23527;48.150;11.610;2022-07-29T08:40:56;95662.44;;;32.96;25.77
37690;BME280;23527;48.150;11.610;2022-07-29T08:43:57;95670.41;;;33.01;27.16
37690;BME280;23527;48.150;11.610;2022-07-29T08:46:58;95668.16;;;33.03;26.05
37690;BME280;23527;48.150;11.610;2022-07-29T08:49:58;95664.16;;;32.92;24.79
37690;BME280;23527;48.150;11.610;2022-07-29T08:52:58;95662.09;;;32.89;26.75
37690;BME280;23527;48.150;11.610;2022-07-29T08:55:58;95663.72;;;32.99;26.45
37690;BME280;23527;48.150;11.610;2022-07-29T08:58:59;95659.34;;;32.80;26.05
37690;BME280;23527;48.150;11.610;2022-07-29T09:02:02;95668.69;;;32.74;27.87
37690;BME280;23527;48.150;11.610;2022-07-29T09:05:03;95663.94;;;32.57;27.22
37690;BME280;23527;48.150;11.610;2022-07-29T09:08:04;95684.69;;;32.48;26.77
37690;BME280;23527;48.150;11.610;2022-07-29T09:11:04;95678.91;;;32.41;27.29
37690;BME280;23527;48.150;11.610;2022-07-29T09:14:07;95686.69;;;32.43;27.84
37690;BME280;23527;48.150;11.610;2022-07-29T09:17:07;95688.09;;;32.40;29.01
37690;BME280;23527;48.150;11.610;2022-07-29T09:20:11;95682.50;;;32.37;27.70
37690;BME280;23527;48.150;11.610;2022-07-29T09:23:12;95677.00;;;32.42;27.30
37690;BME280;23527;48.150;11.610;2022-07-29T09:26:13;95673.63;;;32.58;27.43
37690;BME280;23527;48.150;11.610;2022-07-29T09:29:14;95669.69;;;32.65;27.17
37690;BME280;23527;48.150;11.610;2022-07-29T09:32:15;95667.91;;;32.82;27.64
37690;BME280;23527;48.150;11.610;2022-07-29T09:35:19;95664.03;;;32.97;27.86
37690;BME280;23527;48.150;11.610;2022-07-29T09:38:20;95662.81;;;33.12;26.83
37690;BME280;23527;48.150;11.610;2022-07-29T09:41:20;95665.47;;;33.03;27.35
37690;BME280;23527;48.150;11.610;2022-07-29T09:44:21;95664.47;;;32.90;27.32
37690;BME280;23527;48.150;11.610;2022-07-29T09:47:21;95665.72;;;32.84;27.46
37690;BME280;23527;48.150;11.610;2022-07-29T09:50:41;95670.59;;;32.74;27.39
37690;BME280;23527;48.150;11.610;2022-07-29T09:53:42;95670.78;;;32.64;28.22
37690;BME280;23527;48.150;11.610;2022-07-29T09:56:42;95665.97;;;32.52;27.83
37690;BME280;23527;48.150;11.610;2022-07-29T09:59:45;95661.25;;;32.35;28.98
37690;BME280;23527;48.150;11.610;2022-07-29T10:02:55;95661.88;;;32.32;27.53
37690;BME280;23527;48.150;11.610;2022-07-29T10:06:05;95658.38;;;32.32;28.32
37690;BME280;23527;48.150;11.610;2022-07-29T10:09:08;95663.88;;;32.27;28.31
37690;BME280;23527;48.150;11.610;2022-07-29T10:12:10;95661.47;;;32.25;28.42
37690;BME280;23527;48.150;11.610;2022-07-29T10:15:13;95661.19;;;32.27;29.02
37690;BME280;23527;48.150;11.610;2022-07-29T10:18:15;95665.78;;;32.26;29.37
37690;BME280;23527;48.150;11.610;2022-07-29T10:21:19;95663.38;;;32.25;29.63
37690;BME280;23527;48.150;11.610;2022-07-29T10:24:19;95664.09;;;32.16;28.58
37690;BME280;23527;48.150;11.610;2022-07-29T10:27:20;95665.13;;;32.07;28.78
37690;BME280;23527;48.150;11.610;2022-07-29T10:30:21;95655.31;;;32.11;28.69
37690;BME280;23527;48.150;11.610;2022-07-29T10:39:55;95657.59;;;32.17;29.00
37690;BME280;23527;48.150;11.610;2022-07-29T10:42:58;95664.91;;;32.17;29.70
37690;BME280;23527;48.150;11.610;2022-07-29T10:46:03;95663.38;;;32.25;29.63
37690;BME280;23527;48.150;11.610;2022-07-29T10:49:08;95656.28;;;32.29;28.90
37690;BME280;23527;48.150;11.610;2022-07-29T10:52:09;95657.09;;;32.29;28.56
37690;BME280;23527;48.150;11.610;2022-07-29T10:55:09;95654.75;;;32.36;28.14
37690;BME280;23527;48.150;11.610;2022-07-29T10:58:29;95656.28;;;32.51;28.09
37690;BME280;23527;48.150;11.610;2022-07-29T11:01:30;95644.97;;;32.71;27.38
37690;BME280;23527;48.150;11.610;2022-07-29T11:08:17;95641.44;;;32.84;27.37
37690;BME280;23527;48.150;11.610;2022-07-29T11:14:54;95644.66;;;32.95;28.26
37690;BME280;23527;48.150;11.610;2022-07-29T11:20:51;95642.44;;;33.28;27.22
37690;BME280;23527;48.150;11.610;2022-07-29T11:24:10;95645.81;;;33.42;27.56
37690;BME280;23527;48.150;11.610;2022-07-29T11:30:14;95634.88;;;33.73;26.29
37690;BME280;23527;48.150;11.610;2022-07-29T11:33:31;95634.59;;;33.83;24.87
37690;BME280;23527;48.150;11.610;2022-07-29T11:36:31;95635.56;;;34.05;25.67
37690;BME280;23527;48.150;11.610;2022-07-29T11:39:32;95633.34;;;34.15;25.23
37690;BME280;23527;48.150;11.610;2022-07-29T11:45:45;95618.06;;;34.19;25.06
37690;BME280;23527;48.150;11.610;2022-07-29T11:48:46;95622.06;;;34.22;25.76
37690;BME280;23527;48.150;11.610;2022-07-29T11:51:54;95614.41;;;34.15;25.10
37690;BME280;23527;48.150;11.610;2022-07-29T11:54:54;95610.91;;;34.15;25.75
37690;BME280;23527;48.150;11.610;2022-07-29T11:57:58;95617.75;;;34.12;24.41
37690;BME280;23527;48.150;11.610;2022-07-29T12:00:59;95616.63;;;33.96;24.30
37690;BME280;23527;48.150;11.610;2022-07-29T12:04:06;95623.78;;;33.83;24.07
37690;BME280;23527;48.150;11.610;2022-07-29T12:07:06;95619.34;;;33.79;25.06
37690;BME280;23527;48.150;11.610;2022-07-29T12:10:07;95615.16;;;33.73;24.38
37690;BME280;23527;48.150;11.610;2022-07-29T12:13:07;95609.75;;;33.64;24.15
37690;BME280;23527;48.150;11.610;2022-07-29T12:16:08;95601.31;;;33.57;24.13
37690;BME280;23527;48.150;11.610;2022-07-29T12:19:08;95604.97;;;33.61;25.54
37690;BME280;23527;48.150;11.610;2022-07-29T12:22:08;95603.56;;;33.63;24.63
37690;BME280;23527;48.150;11.610;2022-07-29T12:28:10;95593.56;;;33.64;25.65
37690;BME280;23527;48.150;11.610;2022-07-29T12:31:12;95598.78;;;33.69;26.73
37690;BME280;23527;48.150;11.610;2022-07-29T12:34:15;95596.88;;;33.70;26.20
37690;BME280;23527;48.150;11.610;2022-07-29T12:37:15;95601.03;;;33.67;26.36
37690;BME280;23527;48.150;11.610;2022-07-29T12:40:16;95594.03;;;33.66;26.61
37690;BME280;23527;48.150;11.610;2022-07-29T12:43:18;95594.34;;;33.65;26.15
37690;BME280;23527;48.150;11.610;2022-07-29T12:46:19;95589.91;;;33.69;26.54
37690;BME280;23527;48.150;11.610;2022-07-29T12:49:22;95587.84;;;33.74;27.04
37690;BME280;23527;48.150;11.610;2022-07-29T12:52:23;95592.13;;;33.67;25.94
37690;BME280;23527;48.150;11.610;2022-07-29T12:55:40;95587.19;;;33.60;26.76
37690;BME280;23527;48.150;11.610;2022-07-29T12:58:41;95588.13;;;33.47;26.76
37690;BME280;23527;48.150;11.610;2022-07-29T13:01:42;95596.22;;;33.38;25.96
37690;BME280;23527;48.150;11.610;2022-07-29T13:04:42;95600.94;;;33.24;25.76
37690;BME280;23527;48.150;11.610;2022-07-29T13:07:43;95600.56;;;33.17;26.17
37690;BME280;23527;48.150;11.610;2022-07-29T13:10:44;95604.53;;;33.11;26.21
37690;BME280;23527;48.150;11.610;2022-07-29T13:13:50;95598.31;;;33.02;25.97
37690;BME280;23527;48.150;11.610;2022-07-29T13:20:07;95598.56;;;32.83;25.31
37690;BME280;23527;48.150;11.610;2022-07-29T13:23:09;95587.56;;;32.79;25.81
37690;BME280;23527;48.150;11.610;2022-07-29T13:26:09;95590.28;;;32.79;25.69
37690;BME280;23527;48.150;11.610;2022-07-29T13:29:11;95593.53;;;32.68;27.23
37690;BME280;23527;48.150;11.610;2022-07-29T13:32:11;95602.53;;;32.63;27.67
37690;BME280;23527;48.150;11.610;2022-07-29T13:35:12;95602.38;;;32.60;28.65
37690;BME280;23527;48.150;11.610;2022-07-29T13:38:13;95598.22;;;32.53;28.40
37690;BME280;23527;48.150;11.610;2022-07-29T13:41:13;95596.22;;;32.37;26.67
37690;BME280;23527;48.150;11.610;2022-07-29T13:44:13;95595.38;;;32.28;26.86
37690;BME280;23527;48.150;11.610;2022-07-29T13:47:14;95603.75;;;32.26;28.17
37690;BME280;23527;48.150;11.610;2022-07-29T13:50:16;95590.13;;;32.22;27.40
37690;BME280;23527;48.150;11.610;2022-07-29T13:53:16;95583.94;;;32.22;27.05
37690;BME280;23527;48.150;11.610;2022-07-29T13:56:16;95575.19;;;32.25;28.42
37690;BME280;23527;48.150;11.610;2022-07-29T13:59:16;95577.19;;;32.33;27.51
37690;BME280;23527;48.150;11.610;2022-07-29T14:02:17;95583.41;;;32.42;27.69
37690;BME280;23527;48.150;11.610;2022-07-29T14:05:17;95578.72;;;32.56;27.38
37690;BME280;23527;48.150;11.610;2022-07-29T14:08:17;95578.69;;;32.79;28.22
37690;BME280;23527;48.150;11.610;2022-07-29T14:11:18;95575.97;;;32.79;27.01
37690;BME280;23527;48.150;11.610;2022-07-29T14:14:18;95571.56;;;32.83;27.85
37690;BME280;23527;48.150;11.610;2022-07-29T14:17:18;95571.31;;;32.71;27.42
37690;BME280;23527;48.150;11.610;2022-07-29T14:20:19;95571.16;;;32.67;27.23
37690;BME280;23527;48.150;11.610;2022-07-29T14:23:19;95568.16;;;32.69;27.46
37690;BME280;23527;48.150;11.610;2022-07-29T14:26:20;95560.53;;;32.71;27.72
37690;BME280;23527;48.150;11.610;2022-07-29T14:29:22;95565.25;;;32.65;27.49
37690;BME280;23527;48.150;11.610;2022-07-29T14:32:22;95561.94;;;32.68;27.98
37690;BME280;23527;48.150;11.610;2022-07-29T14:35:22;95554.63;;;32.60;26.89
37690;BME280;23527;48.150;11.610;2022-07-29T14:38:22;95560.81;;;32.61;27.40
37690;BME280;23527;48.150;11.610;2022-07-29T14:41:23;95562.06;;;32.63;26.86
37690;BME280;23527;48.150;11.610;2022-07-29T14:44:23;95559.06;;;32.65;26.81
37690;BME280;23527;48.150;11.610;2022-07-29T14:47:26;95568.13;;;32.60;27.94
37690;BME280;23527;48.150;11.610;2022-07-29T14:50:26;95572.06;;;32.63;27.18
37690;BME280;23527;48.150;11.610;2022-07-29T14:53:27;95581.41;;;32.56;26.63
37690;BME280;23527;48.150;11.610;2022-07-29T14:56:27;95584.44;;;32.55;27.33
37690;BME280;23527;48.150;11.610;2022-07-29T14:59:29;95583.63;;;32.54;27.81
37690;BME280;23527;48.150;11.610;2022-07-29T15:02:29;95586.78;;;32.48;26.76
37690;BME280;23527;48.150;11.610;2022-07-29T15:05:30;95586.91;;;32.43;27.55
37690;BME280;23527;48.150;11.610;2022-07-29T15:08:31;95593.69;;;32.40;27.40
37690;BME280;23527;48.150;11.610;2022-07-29T15:11:31;95594.00;;;32.39;27.15
37690;BME280;23527;48.150;11.610;2022-07-29T15:14:31;95589.56;;;32.34;27.11
37690;BME280;23527;48.150;11.610;2022-07-29T15:17:32;95588.44;;;32.35;28.28
37690;BME280;23527;48.150;11.610;2022-07-29T15:20:32;95584.16;;;32.34;27.33
37690;BME280;23527;48.150;11.610;2022-07-29T15:23:32;95578.84;;;32.20;27.67
37690;BME280;23527;48.150;11.610;2022-07-29T15:26:35;95577.81;;;32.16;28.41
37690;BME280;23527;48.150;11.610;2022-07-29T15:29:35;95573.03;;;32.13;27.79
37690;BME280;23527;48.150;11.610;2022-07-29T15:32:35;95574.59;;;32.06;27.70
37690;BME280;23527;48.150;11.610;2022-07-29T15:35:36;95577.09;;;32.02;28.95
37690;BME280;23527;48.150;11.610;2022-07-29T15:38:36;95571.66;;;31.94;28.83
37690;BME280;23527;48.150;11.610;2022-07-29T15:41:37;95582.84;;;31.87;29.18
37690;BME280;23527;48.150;11.610;2022-07-29T15:44:37;95587.72;;;31.85;29.10
37690;BME280;23527;48.150;11.610;2022-07-29T15:47:38;95592.97;;;31.81;29.55
37690;BME280;23527;48.150;11.610;2022-07-29T15:50:38;95593.25;;;31.80;30.33
37690;BME280;23527;48.150;11.610;2022-07-29T15:53:38;95588.28;;;31.73;29.74
37690;BME280;23527;48.150;11.610;2022-07-29T15:56:38;95598.56;;;31.71;29.76
37690;BME280;23527;48.150;11.610;2022-07-29T15:59:38;95609.84;;;31.60;30.22
37690;BME280;23527;48.150;11.610;2022-07-29T16:02:39;95607.88;;;31.51;30.95
37690;BME280;23527;48.150;11.610;2022-07-29T16:05:39;95613.06;;;31.48;31.77
37690;BME280;23527;48.150;11.610;2022-07-29T16:08:39;95610.78;;;31.41;31.33
37690;BME280;23527;48.150;11.610;2022-07-29T16:11:40;95613.97;;;31.30;31.25
37690;BME280;23527;48.150;11.610;2022-07-29T16:14:40;95618.06;;;31.27;31.18
37690;BME280;23527;48.150;11.610;2022-07-29T16:17:40;95611.09;;;31.26;31.49
37690;BME280;23527;48.150;11.610;2022-07-29T16:20:40;95608.19;;;31.23;31.07
37690;BME280;23527;48.150;11.610;2022-07-29T16:23:41;95606.41;;;31.18;31.60
37690;BME280;23527;48.150;11.610;2022-07-29T16:26:41;95608.63;;;31.16;31.90